createdAt,value
2018-06-22T00:00:55.234Z,0.00
2018-06-22T00:01:55.254Z,0.00
2018-06-22T00:02:55.275Z,0.00
2018-06-22T00:03:55.302Z,0.00
2018-06-22T00:04:55.319Z,0.00
2018-06-22T00:05:55.340Z,0.00
2018-06-22T00:06:55.359Z,0.00
2018-06-22T00:07:55.380Z,0.00
2018-06-22T00:08:55.399Z,0.00
2018-06-22T00:09:55.418Z,0.00
2018-06-22T00:10:55.439Z,0.00
2018-06-22T00:11:55.464Z,0.00
2018-06-22T00:12:55.481Z,0.00
2018-06-22T00:13:55.504Z,0.00
2018-06-22T00:14:55.524Z,0.00
2018-06-22T00:15:55.544Z,0.00
2018-06-22T00:16:55.565Z,0.00
2018-06-22T00:17:55.583Z,0.00
2018-06-22T00:18:55.640Z,0.00
2018-06-22T00:19:55.623Z,0.00
2018-06-22T00:20:55.648Z,0.00
2018-06-22T00:21:55.676Z,0.00
2018-06-22T00:22:55.693Z,0.00
2018-06-22T00:23:55.709Z,0.00
2018-06-22T00:24:55.732Z,0.00
2018-06-22T00:25:55.756Z,0.00
2018-06-22T00:26:55.778Z,0.00
2018-06-22T00:27:55.800Z,0.00
2018-06-22T00:28:55.809Z,0.00
2018-06-22T00:29:55.856Z,0.00
2018-06-22T00:30:55.853Z,0.00
2018-06-22T00:31:55.873Z,0.00
2018-06-22T00:32:55.894Z,0.00
2018-06-22T00:33:55.919Z,0.00
2018-06-22T00:34:55.938Z,0.00
2018-06-22T00:35:55.958Z,0.00
2018-06-22T00:36:55.979Z,0.00
2018-06-22T00:37:55.998Z,0.00
2018-06-22T00:38:56.019Z,0.00
2018-06-22T00:39:56.038Z,0.00
2018-06-22T00:40:56.064Z,0.00
2018-06-22T00:41:56.083Z,0.00
2018-06-22T00:42:56.105Z,0.00
2018-06-22T00:43:56.119Z,0.00
2018-06-22T00:44:56.142Z,0.00
2018-06-22T00:45:56.163Z,0.00
2018-06-22T00:46:56.184Z,0.00
2018-06-22T00:47:56.208Z,0.00
2018-06-22T00:48:56.223Z,0.00
2018-06-22T00:49:56.248Z,0.00
2018-06-22T00:50:56.269Z,0.00
2018-06-22T00:51:56.289Z,0.00
2018-06-22T00:52:56.306Z,0.00
2018-06-22T00:53:56.331Z,0.00
2018-06-22T00:54:56.350Z,0.00
2018-06-22T00:55:56.366Z,0.00
2018-06-22T00:56:56.392Z,0.00
2018-06-22T00:57:56.413Z,0.00
2018-06-22T00:58:56.427Z,0.00
2018-06-22T00:59:56.452Z,0.00
2018-06-22T01:00:56.475Z,0.00
2018-06-22T01:01:56.489Z,0.00
2018-06-22T01:02:56.512Z,0.00
2018-06-22T01:03:56.533Z,0.00
2018-06-22T01:04:56.555Z,0.00
2018-06-22T01:05:56.571Z,0.00
2018-06-22T01:06:56.592Z,0.00
2018-06-22T01:07:56.616Z,0.00
2018-06-22T01:08:56.635Z,0.00
2018-06-22T01:09:56.654Z,0.00
2018-06-22T01:10:56.676Z,0.00
2018-06-22T01:11:56.694Z,0.00
2018-06-22T01:12:56.718Z,0.00
2018-06-22T01:13:56.736Z,0.00
2018-06-22T01:14:56.762Z,0.00
2018-06-22T01:15:56.779Z,0.00
2018-06-22T01:16:56.800Z,0.00
2018-06-22T01:17:56.820Z,0.00
2018-06-22T01:18:56.842Z,0.00
2018-06-22T01:19:56.867Z,0.00
2018-06-22T01:20:56.882Z,0.00
2018-06-22T01:21:56.903Z,0.00
2018-06-22T01:22:56.921Z,0.00
2018-06-22T01:23:56.939Z,0.00
2018-06-22T01:24:56.964Z,0.00
2018-06-22T01:25:56.983Z,0.00
2018-06-22T01:26:57.006Z,0.00
2018-06-22T01:27:57.058Z,0.00
2018-06-22T01:28:57.047Z,0.00
2018-06-22T01:29:57.064Z,0.00
2018-06-22T01:30:57.083Z,0.00
2018-06-22T01:31:57.110Z,0.00
2018-06-22T01:32:57.129Z,0.00
2018-06-22T01:33:57.149Z,0.00
2018-06-22T01:34:57.174Z,0.00
2018-06-22T01:35:57.196Z,0.00
2018-06-22T01:36:57.208Z,0.00
2018-06-22T01:37:57.232Z,0.00
2018-06-22T01:38:57.253Z,0.00
2018-06-22T01:39:57.268Z,0.00
2018-06-22T01:40:57.294Z,0.00
2018-06-22T01:41:57.310Z,0.00
2018-06-22T01:42:57.334Z,0.00
2018-06-22T01:43:57.357Z,0.00
2018-06-22T01:44:57.374Z,0.00
2018-06-22T01:45:57.395Z,0.00
2018-06-22T01:46:57.416Z,0.00
2018-06-22T01:47:57.433Z,0.00
2018-06-22T01:48:57.454Z,0.00
2018-06-22T01:49:57.478Z,0.00
2018-06-22T01:50:57.494Z,0.00
2018-06-22T01:51:57.520Z,0.00
2018-06-22T01:52:57.541Z,0.00
2018-06-22T01:53:57.557Z,0.00
2018-06-22T01:54:57.579Z,0.00
2018-06-22T01:55:57.601Z,0.00
2018-06-22T01:56:57.621Z,0.00
2018-06-22T01:57:57.638Z,0.00
2018-06-22T01:58:57.658Z,0.00
2018-06-22T01:59:57.687Z,0.00
2018-06-22T02:00:57.698Z,0.00
2018-06-22T02:01:57.724Z,0.00
2018-06-22T02:02:57.739Z,0.00
2018-06-22T02:03:57.786Z,0.00
2018-06-22T02:04:57.783Z,0.00
2018-06-22T02:05:57.804Z,0.00
2018-06-22T02:06:57.822Z,0.00
2018-06-22T02:07:57.842Z,0.00
2018-06-22T02:08:57.860Z,0.00
2018-06-22T02:09:57.881Z,0.00
2018-06-22T02:10:57.903Z,0.00
2018-06-22T02:11:57.922Z,0.00
2018-06-22T02:12:57.942Z,0.00
2018-06-22T02:13:57.962Z,0.00
2018-06-22T02:14:57.986Z,0.00
2018-06-22T02:15:58.005Z,0.00
2018-06-22T02:16:58.026Z,0.00
2018-06-22T02:17:58.048Z,0.00
2018-06-22T02:18:58.073Z,0.00
2018-06-22T02:19:58.086Z,0.00
2018-06-22T02:20:58.107Z,0.00
2018-06-22T02:21:58.128Z,0.00
2018-06-22T02:22:58.147Z,0.00
2018-06-22T02:23:58.167Z,0.00
2018-06-22T02:24:58.192Z,0.00
2018-06-22T02:25:58.210Z,0.00
2018-06-22T02:26:58.236Z,0.00
2018-06-22T02:27:58.250Z,0.00
2018-06-22T02:28:58.274Z,0.00
2018-06-22T02:29:58.292Z,0.00
2018-06-22T02:30:58.323Z,0.00
2018-06-22T02:31:58.332Z,0.00
2018-06-22T02:32:58.351Z,0.00
2018-06-22T02:33:58.371Z,0.00
2018-06-22T02:34:58.392Z,0.00
2018-06-22T02:35:58.415Z,0.00
2018-06-22T02:36:58.437Z,0.00
2018-06-22T02:37:58.452Z,0.00
2018-06-22T02:38:58.480Z,0.00
2018-06-22T02:39:58.499Z,0.00
2018-06-22T02:40:58.518Z,0.00
2018-06-22T02:41:58.536Z,0.00
2018-06-22T02:42:58.558Z,0.00
2018-06-22T02:43:58.576Z,0.00
2018-06-22T02:44:58.597Z,0.00
2018-06-22T02:45:58.620Z,0.00
2018-06-22T02:46:58.640Z,0.00
2018-06-22T02:47:58.658Z,0.00
2018-06-22T02:48:58.685Z,0.00
2018-06-22T02:49:58.700Z,0.00
2018-06-22T02:50:58.721Z,0.00
2018-06-22T02:51:58.739Z,0.00
2018-06-22T02:52:58.763Z,0.00
2018-06-22T02:53:58.783Z,0.00
2018-06-22T02:54:58.802Z,0.00
2018-06-22T02:55:58.823Z,0.00
2018-06-22T02:56:58.848Z,0.00
2018-06-22T02:57:58.869Z,0.00
2018-06-22T02:58:58.888Z,0.00
2018-06-22T02:59:58.917Z,0.00
2018-06-22T03:00:58.925Z,0.00
2018-06-22T03:01:58.950Z,0.00
2018-06-22T03:02:58.970Z,0.00
2018-06-22T03:03:58.989Z,0.00
2018-06-22T03:04:59.013Z,0.00
2018-06-22T03:05:59.033Z,0.00
2018-06-22T03:06:59.053Z,0.00
2018-06-22T03:07:59.069Z,0.00
2018-06-22T03:08:59.090Z,0.00
2018-06-22T03:09:59.108Z,0.00
2018-06-22T03:10:59.128Z,0.00
2018-06-22T03:11:59.168Z,0.00
2018-06-22T03:12:59.168Z,0.00
2018-06-22T03:13:59.191Z,0.00
2018-06-22T03:14:59.209Z,0.00
2018-06-22T03:15:59.229Z,0.00
2018-06-22T03:16:59.249Z,0.00
2018-06-22T03:17:59.269Z,0.00
2018-06-22T03:18:59.287Z,0.00
2018-06-22T03:19:59.308Z,0.00
2018-06-22T03:20:59.330Z,0.00
2018-06-22T03:21:59.348Z,0.00
2018-06-22T03:22:59.368Z,0.00
2018-06-22T03:23:59.388Z,0.00
2018-06-22T03:24:59.409Z,0.00
2018-06-22T03:25:59.432Z,0.00
2018-06-22T03:26:59.447Z,0.00
2018-06-22T03:27:59.467Z,5.63
2018-06-22T03:28:59.492Z,5.63
2018-06-22T03:29:59.509Z,5.63
2018-06-22T03:30:59.527Z,5.63
2018-06-22T03:31:59.596Z,5.63
2018-06-22T03:32:59.569Z,5.63
2018-06-22T03:33:59.587Z,11.25
2018-06-22T03:34:59.611Z,11.25
2018-06-22T03:35:59.627Z,16.88
2018-06-22T03:36:59.651Z,16.88
2018-06-22T03:37:59.672Z,16.88
2018-06-22T03:38:59.690Z,16.88
2018-06-22T03:39:59.707Z,22.50
2018-06-22T03:40:59.731Z,22.50
2018-06-22T03:41:59.747Z,22.50
2018-06-22T03:42:59.768Z,22.50
2018-06-22T03:43:59.790Z,16.88
2018-06-22T03:44:59.812Z,16.88
2018-06-22T03:45:59.834Z,16.88
2018-06-22T03:46:59.853Z,16.88
2018-06-22T03:47:59.870Z,22.50
2018-06-22T03:48:59.888Z,28.13
2018-06-22T03:49:59.912Z,33.75
2018-06-22T03:50:59.936Z,45.00
2018-06-22T03:51:59.947Z,50.63
2018-06-22T03:52:59.973Z,56.25
2018-06-22T03:53:59.994Z,61.88
2018-06-22T03:55:00.016Z,67.50
2018-06-22T03:56:00.029Z,67.50
2018-06-22T03:57:00.052Z,67.50
2018-06-22T03:58:00.076Z,61.88
2018-06-22T03:59:00.093Z,50.63
2018-06-22T04:00:00.113Z,39.38
2018-06-22T04:01:00.136Z,33.75
2018-06-22T04:02:00.158Z,28.13
2018-06-22T04:03:00.171Z,22.50
2018-06-22T04:04:00.194Z,22.50
2018-06-22T04:05:00.210Z,22.50
2018-06-22T04:06:00.236Z,22.50
2018-06-22T04:07:00.255Z,16.88
2018-06-22T04:08:00.276Z,16.88
2018-06-22T04:09:00.309Z,22.50
2018-06-22T04:10:00.316Z,22.50
2018-06-22T04:11:00.335Z,22.50
2018-06-22T04:12:00.356Z,28.13
2018-06-22T04:13:00.418Z,33.75
2018-06-22T04:14:00.396Z,39.38
2018-06-22T04:15:00.430Z,45.00
2018-06-22T04:16:00.440Z,45.00
2018-06-22T04:17:00.458Z,50.63
2018-06-22T04:18:00.474Z,56.25
2018-06-22T04:19:00.499Z,56.25
2018-06-22T04:20:00.515Z,50.63
2018-06-22T04:21:00.542Z,50.63
2018-06-22T04:22:00.555Z,50.63
2018-06-22T04:23:00.583Z,50.63
2018-06-22T04:24:00.604Z,50.63
2018-06-22T04:25:00.620Z,45.00
2018-06-22T04:26:00.644Z,45.00
2018-06-22T04:27:00.661Z,39.38
2018-06-22T04:28:00.680Z,33.75
2018-06-22T04:29:00.698Z,33.75
2018-06-22T04:30:00.725Z,39.38
2018-06-22T04:31:00.742Z,45.00
2018-06-22T04:32:00.769Z,56.25
2018-06-22T04:33:00.780Z,67.50
2018-06-22T04:34:00.808Z,78.75
2018-06-22T04:35:00.827Z,90.00
2018-06-22T04:36:00.850Z,95.63
2018-06-22T04:37:00.865Z,95.63
2018-06-22T04:38:00.886Z,101.25
2018-06-22T04:39:00.911Z,106.88
2018-06-22T04:40:00.922Z,112.50
2018-06-22T04:41:00.945Z,118.13
2018-06-22T04:42:00.964Z,129.38
2018-06-22T04:43:00.988Z,146.25
2018-06-22T04:44:01.003Z,157.50
2018-06-22T04:45:01.032Z,174.38
2018-06-22T04:46:01.054Z,180.00
2018-06-22T04:47:01.069Z,196.88
2018-06-22T04:48:01.091Z,202.50
2018-06-22T04:49:01.115Z,208.13
2018-06-22T04:50:01.129Z,202.50
2018-06-22T04:51:01.154Z,191.25
2018-06-22T04:52:01.175Z,163.13
2018-06-22T04:53:01.245Z,146.25
2018-06-22T04:54:01.214Z,135.00
2018-06-22T04:55:01.234Z,123.75
2018-06-22T04:56:01.254Z,118.13
2018-06-22T04:57:01.284Z,106.88
2018-06-22T04:58:01.299Z,95.63
2018-06-22T04:59:01.318Z,84.38
2018-06-22T05:00:01.339Z,78.75
2018-06-22T05:01:01.359Z,78.75
2018-06-22T05:02:01.378Z,73.13
2018-06-22T05:03:01.405Z,67.50
2018-06-22T05:04:01.426Z,67.50
2018-06-22T05:05:01.444Z,67.50
2018-06-22T05:06:01.462Z,67.50
2018-06-22T05:07:01.483Z,73.13
2018-06-22T05:08:01.504Z,78.75
2018-06-22T05:09:01.528Z,84.38
2018-06-22T05:10:01.552Z,95.63
2018-06-22T05:11:01.568Z,112.50
2018-06-22T05:12:01.595Z,129.38
2018-06-22T05:13:01.608Z,151.88
2018-06-22T05:14:01.625Z,174.38
2018-06-22T05:15:01.651Z,185.63
2018-06-22T05:16:01.673Z,202.50
2018-06-22T05:17:01.702Z,196.88
2018-06-22T05:18:01.713Z,185.63
2018-06-22T05:19:01.732Z,180.00
2018-06-22T05:20:01.752Z,168.75
2018-06-22T05:21:01.781Z,163.13
2018-06-22T05:22:01.794Z,157.50
2018-06-22T05:23:01.819Z,163.13
2018-06-22T05:24:01.835Z,163.13
2018-06-22T05:25:01.854Z,168.75
2018-06-22T05:26:01.878Z,185.63
2018-06-22T05:27:01.894Z,208.13
2018-06-22T05:28:01.922Z,236.25
2018-06-22T05:29:01.937Z,253.13
2018-06-22T05:30:01.957Z,281.25
2018-06-22T05:31:01.992Z,292.50
2018-06-22T05:32:02.003Z,315.00
2018-06-22T05:33:02.022Z,326.25
2018-06-22T05:34:02.041Z,337.50
2018-06-22T05:35:02.062Z,343.13
2018-06-22T05:36:02.090Z,354.38
2018-06-22T05:37:02.105Z,365.63
2018-06-22T05:38:02.128Z,371.25
2018-06-22T05:39:02.147Z,388.13
2018-06-22T05:40:02.169Z,393.75
2018-06-22T05:41:02.189Z,399.38
2018-06-22T05:42:02.209Z,405.00
2018-06-22T05:43:02.231Z,405.00
2018-06-22T05:44:02.251Z,405.00
2018-06-22T05:45:02.279Z,399.38
2018-06-22T05:46:02.295Z,399.38
2018-06-22T05:47:02.321Z,405.00
2018-06-22T05:48:02.336Z,393.75
2018-06-22T05:49:02.368Z,393.75
2018-06-22T05:50:02.381Z,416.25
2018-06-22T05:51:02.437Z,421.88
2018-06-22T05:52:02.420Z,444.38
2018-06-22T05:53:02.441Z,444.38
2018-06-22T05:54:02.465Z,421.88
2018-06-22T05:55:02.487Z,399.38
2018-06-22T05:56:02.510Z,393.75
2018-06-22T05:57:02.530Z,393.75
2018-06-22T05:58:02.550Z,421.88
2018-06-22T05:59:02.569Z,438.75
2018-06-22T06:00:02.595Z,438.75
2018-06-22T06:01:02.614Z,421.88
2018-06-22T06:02:02.637Z,405.00
2018-06-22T06:03:02.664Z,382.50
2018-06-22T06:04:02.682Z,388.13
2018-06-22T06:05:02.720Z,405.00
2018-06-22T06:06:02.725Z,405.00
2018-06-22T06:07:02.754Z,388.13
2018-06-22T06:08:02.765Z,393.75
2018-06-22T06:09:02.784Z,405.00
2018-06-22T06:10:02.809Z,388.13
2018-06-22T06:11:02.907Z,354.38
2018-06-22T06:12:02.855Z,320.63
2018-06-22T06:13:02.874Z,309.38
2018-06-22T06:14:02.897Z,320.63
2018-06-22T06:15:02.922Z,320.63
2018-06-22T06:16:02.938Z,315.00
2018-06-22T06:17:02.967Z,337.50
2018-06-22T06:18:02.986Z,393.75
2018-06-22T06:19:03.005Z,399.38
2018-06-22T06:20:03.049Z,393.75
2018-06-22T06:21:03.048Z,388.13
2018-06-22T06:22:03.071Z,382.50
2018-06-22T06:23:03.093Z,393.75
2018-06-22T06:24:03.122Z,405.00
2018-06-22T06:25:03.145Z,405.00
2018-06-22T06:26:03.167Z,376.88
2018-06-22T06:27:03.188Z,326.25
2018-06-22T06:28:03.207Z,298.13
2018-06-22T06:29:03.223Z,315.00
2018-06-22T06:30:03.257Z,371.25
2018-06-22T06:31:03.267Z,410.63
2018-06-22T06:32:03.296Z,455.63
2018-06-22T06:33:03.317Z,472.50
2018-06-22T06:34:03.337Z,478.13
2018-06-22T06:35:03.361Z,489.38
2018-06-22T06:36:03.384Z,478.13
2018-06-22T06:37:03.404Z,461.25
2018-06-22T06:38:03.435Z,450.00
2018-06-22T06:39:03.451Z,444.38
2018-06-22T06:40:03.475Z,444.38
2018-06-22T06:41:03.492Z,438.75
2018-06-22T06:42:03.522Z,455.63
2018-06-22T06:43:03.538Z,478.13
2018-06-22T06:44:03.557Z,461.25
2018-06-22T06:45:03.585Z,410.63
2018-06-22T06:46:03.604Z,337.50
2018-06-22T06:47:03.630Z,303.75
2018-06-22T06:48:03.647Z,348.75
2018-06-22T06:49:03.674Z,376.88
2018-06-22T06:50:03.692Z,405.00
2018-06-22T06:51:03.721Z,393.75
2018-06-22T06:52:03.741Z,371.25
2018-06-22T06:53:03.763Z,376.88
2018-06-22T06:54:03.783Z,393.75
2018-06-22T06:55:03.807Z,371.25
2018-06-22T06:56:03.832Z,337.50
2018-06-22T06:57:03.856Z,320.63
2018-06-22T06:58:03.872Z,337.50
2018-06-22T06:59:03.899Z,320.63
2018-06-22T07:00:03.920Z,292.50
2018-06-22T07:01:03.936Z,270.00
2018-06-22T07:02:03.968Z,298.13
2018-06-22T07:03:03.990Z,365.63
2018-06-22T07:04:04.007Z,399.38
2018-06-22T07:05:04.027Z,399.38
2018-06-22T07:06:04.051Z,376.88
2018-06-22T07:07:04.079Z,348.75
2018-06-22T07:08:04.102Z,337.50
2018-06-22T07:09:04.123Z,365.63
2018-06-22T07:10:04.152Z,421.88
2018-06-22T07:11:04.163Z,461.25
2018-06-22T07:12:04.190Z,489.38
2018-06-22T07:13:04.212Z,523.13
2018-06-22T07:14:04.240Z,517.50
2018-06-22T07:15:04.265Z,495.00
2018-06-22T07:16:04.285Z,444.38
2018-06-22T07:17:04.316Z,421.88
2018-06-22T07:18:04.321Z,405.00
2018-06-22T07:19:04.345Z,393.75
2018-06-22T07:20:04.370Z,371.25
2018-06-22T07:21:04.394Z,365.63
2018-06-22T07:22:04.417Z,393.75
2018-06-22T07:23:04.444Z,444.38
2018-06-22T07:24:04.462Z,551.25
2018-06-22T07:25:04.480Z,551.25
2018-06-22T07:26:04.506Z,579.38
2018-06-22T07:27:04.526Z,607.50
2018-06-22T07:28:04.551Z,658.13
2018-06-22T07:29:04.580Z,731.25
2018-06-22T07:30:04.600Z,776.25
2018-06-22T07:31:04.620Z,770.63
2018-06-22T07:32:04.643Z,635.63
2018-06-22T07:33:04.666Z,568.13
2018-06-22T07:34:04.690Z,534.38
2018-06-22T07:35:04.710Z,517.50
2018-06-22T07:36:04.845Z,523.13
2018-06-22T07:37:04.755Z,528.75
2018-06-22T07:38:04.798Z,545.63
2018-06-22T07:39:04.808Z,545.63
2018-06-22T07:40:04.836Z,540.00
2018-06-22T07:41:04.849Z,528.75
2018-06-22T07:42:04.880Z,545.63
2018-06-22T07:43:04.904Z,568.13
2018-06-22T07:44:04.928Z,534.38
2018-06-22T07:45:04.944Z,495.00
2018-06-22T07:46:04.970Z,495.00
2018-06-22T07:47:04.991Z,483.75
2018-06-22T07:48:05.022Z,466.88
2018-06-22T07:49:05.039Z,433.13
2018-06-22T07:50:05.064Z,416.25
2018-06-22T07:51:05.093Z,405.00
2018-06-22T07:52:05.110Z,354.38
2018-06-22T07:53:05.134Z,320.63
2018-06-22T07:54:05.155Z,303.75
2018-06-22T07:55:05.213Z,320.63
2018-06-22T07:56:05.209Z,354.38
2018-06-22T07:57:05.231Z,376.88
2018-06-22T07:58:05.251Z,433.13
2018-06-22T07:59:05.276Z,523.13
2018-06-22T08:00:05.293Z,663.75
2018-06-22T08:01:05.319Z,675.00
2018-06-22T08:02:05.339Z,731.25
2018-06-22T08:03:05.371Z,691.88
2018-06-22T08:04:05.394Z,585.00
2018-06-22T08:05:05.417Z,703.13
2018-06-22T08:06:05.440Z,855.00
2018-06-22T08:07:05.462Z,832.50
2018-06-22T08:08:05.485Z,877.50
2018-06-22T08:09:05.512Z,798.75
2018-06-22T08:10:05.534Z,860.63
2018-06-22T08:11:05.553Z,916.88
2018-06-22T08:12:05.593Z,759.38
2018-06-22T08:13:05.610Z,630.00
2018-06-22T08:14:05.630Z,613.13
2018-06-22T08:15:05.659Z,680.63
2018-06-22T08:16:05.689Z,630.00
2018-06-22T08:17:05.700Z,585.00
2018-06-22T08:18:05.724Z,703.13
2018-06-22T08:19:05.759Z,770.63
2018-06-22T08:20:05.775Z,708.75
2018-06-22T08:21:05.807Z,596.25
2018-06-22T08:22:05.832Z,466.88
2018-06-22T08:23:05.845Z,433.13
2018-06-22T08:24:05.873Z,472.50
2018-06-22T08:25:05.898Z,489.38
2018-06-22T08:26:05.971Z,472.50
2018-06-22T08:27:05.946Z,545.63
2018-06-22T08:28:05.969Z,590.63
2018-06-22T08:29:05.996Z,765.00
2018-06-22T08:30:06.017Z,855.00
2018-06-22T08:31:06.048Z,888.75
2018-06-22T08:32:06.073Z,888.75
2018-06-22T08:33:06.092Z,883.13
2018-06-22T08:34:06.115Z,871.88
2018-06-22T08:35:06.148Z,860.63
2018-06-22T08:36:06.170Z,838.13
2018-06-22T08:37:06.195Z,821.25
2018-06-22T08:38:06.217Z,821.25
2018-06-22T08:39:06.241Z,826.88
2018-06-22T08:40:06.267Z,832.50
2018-06-22T08:41:06.287Z,832.50
2018-06-22T08:42:06.391Z,860.63
2018-06-22T08:43:06.338Z,855.00
2018-06-22T08:44:06.376Z,849.38
2018-06-22T08:45:06.387Z,843.75
2018-06-22T08:46:06.414Z,793.13
2018-06-22T08:47:06.436Z,725.63
2018-06-22T08:48:06.456Z,646.88
2018-06-22T08:49:06.490Z,663.75
2018-06-22T08:50:06.516Z,630.00
2018-06-22T08:51:06.538Z,596.25
2018-06-22T08:52:06.559Z,590.63
2018-06-22T08:53:06.589Z,573.75
2018-06-22T08:54:06.611Z,568.13
2018-06-22T08:55:06.635Z,585.00
2018-06-22T08:56:06.656Z,556.88
2018-06-22T08:57:06.692Z,534.38
2018-06-22T08:58:06.708Z,483.75
2018-06-22T08:59:06.733Z,427.50
2018-06-22T09:00:06.762Z,410.63
2018-06-22T09:01:06.779Z,511.88
2018-06-22T09:02:06.820Z,573.75
2018-06-22T09:03:06.827Z,630.00
2018-06-22T09:04:06.855Z,478.13
2018-06-22T09:05:06.878Z,433.13
2018-06-22T09:06:06.908Z,528.75
2018-06-22T09:07:06.929Z,635.63
2018-06-22T09:08:06.955Z,534.38
2018-06-22T09:09:06.980Z,438.75
2018-06-22T09:10:07.001Z,461.25
2018-06-22T09:11:07.025Z,472.50
2018-06-22T09:12:07.048Z,528.75
2018-06-22T09:13:07.070Z,562.50
2018-06-22T09:14:07.102Z,680.63
2018-06-22T09:15:07.123Z,691.88
2018-06-22T09:16:07.150Z,860.63
2018-06-22T09:17:07.176Z,933.75
2018-06-22T09:18:07.195Z,916.88
2018-06-22T09:19:07.219Z,832.50
2018-06-22T09:20:07.248Z,770.63
2018-06-22T09:21:07.273Z,675.00
2018-06-22T09:22:07.295Z,770.63
2018-06-22T09:23:07.315Z,855.00
2018-06-22T09:24:07.342Z,759.38
2018-06-22T09:25:07.378Z,568.13
2018-06-22T09:26:07.398Z,461.25
2018-06-22T09:27:07.424Z,466.88
2018-06-22T09:28:07.438Z,450.00
2018-06-22T09:29:07.468Z,388.13
2018-06-22T09:30:07.496Z,365.63
2018-06-22T09:31:07.518Z,354.38
2018-06-22T09:32:07.550Z,399.38
2018-06-22T09:33:07.565Z,405.00
2018-06-22T09:34:07.593Z,416.25
2018-06-22T09:35:07.628Z,421.88
2018-06-22T09:36:07.643Z,427.50
2018-06-22T09:37:07.664Z,433.13
2018-06-22T09:38:07.688Z,421.88
2018-06-22T09:39:07.712Z,528.75
2018-06-22T09:40:07.742Z,523.13
2018-06-22T09:41:07.763Z,466.88
2018-06-22T09:42:07.788Z,523.13
2018-06-22T09:43:07.813Z,545.63
2018-06-22T09:44:07.837Z,523.13
2018-06-22T09:45:07.946Z,540.00
2018-06-22T09:46:07.887Z,607.50
2018-06-22T09:47:07.913Z,720.00
2018-06-22T09:48:07.943Z,832.50
2018-06-22T09:49:07.964Z,838.13
2018-06-22T09:50:07.990Z,821.25
2018-06-22T09:51:08.013Z,843.75
2018-06-22T09:52:08.036Z,826.88
2018-06-22T09:53:08.109Z,646.88
2018-06-22T09:54:08.089Z,540.00
2018-06-22T09:55:08.179Z,540.00
2018-06-22T09:56:08.138Z,607.50
2018-06-22T09:57:08.164Z,646.88
2018-06-22T09:58:08.184Z,641.25
2018-06-22T09:59:08.209Z,590.63
2018-06-22T10:00:08.234Z,624.38
2018-06-22T10:01:08.262Z,613.13
2018-06-22T10:02:08.336Z,618.75
2018-06-22T10:03:08.312Z,630.00
2018-06-22T10:04:08.335Z,646.88
2018-06-22T10:05:08.362Z,675.00
2018-06-22T10:06:08.387Z,686.25
2018-06-22T10:07:08.415Z,793.13
2018-06-22T10:08:08.459Z,905.63
2018-06-22T10:09:08.461Z,793.13
2018-06-22T10:10:08.493Z,703.13
2018-06-22T10:11:08.517Z,691.88
2018-06-22T10:12:08.537Z,714.38
2018-06-22T10:13:08.561Z,680.63
2018-06-22T10:14:08.591Z,534.38
2018-06-22T10:15:08.622Z,450.00
2018-06-22T10:16:08.646Z,405.00
2018-06-22T10:17:08.661Z,466.88
2018-06-22T10:18:08.689Z,506.25
2018-06-22T10:19:08.717Z,556.88
2018-06-22T10:20:08.744Z,652.50
2018-06-22T10:21:08.797Z,770.63
2018-06-22T10:22:08.796Z,815.63
2018-06-22T10:23:08.815Z,849.38
2018-06-22T10:24:08.844Z,843.75
2018-06-22T10:25:08.866Z,759.38
2018-06-22T10:26:08.893Z,703.13
2018-06-22T10:27:08.915Z,601.88
2018-06-22T10:28:08.947Z,585.00
2018-06-22T10:29:08.971Z,641.25
2018-06-22T10:30:08.996Z,776.25
2018-06-22T10:31:09.023Z,748.13
2018-06-22T10:32:09.048Z,669.38
2018-06-22T10:33:09.070Z,596.25
2018-06-22T10:34:09.094Z,630.00
2018-06-22T10:35:09.129Z,641.25
2018-06-22T10:36:09.146Z,635.63
2018-06-22T10:37:09.171Z,596.25
2018-06-22T10:38:09.198Z,562.50
2018-06-22T10:39:09.276Z,540.00
2018-06-22T10:40:09.247Z,540.00
2018-06-22T10:41:09.273Z,613.13
2018-06-22T10:42:09.305Z,691.88
2018-06-22T10:43:09.330Z,545.63
2018-06-22T10:44:09.351Z,511.88
2018-06-22T10:45:09.375Z,573.75
2018-06-22T10:46:09.402Z,770.63
2018-06-22T10:47:09.435Z,748.13
2018-06-22T10:48:09.458Z,871.88
2018-06-22T10:49:09.484Z,978.75
2018-06-22T10:50:09.505Z,1091.25
2018-06-22T10:51:09.533Z,877.50
2018-06-22T10:52:09.556Z,815.63
2018-06-22T10:53:09.596Z,984.38
2018-06-22T10:54:09.606Z,995.63
2018-06-22T10:55:09.634Z,871.88
2018-06-22T10:56:09.657Z,1001.25
2018-06-22T10:57:09.683Z,1125.00
2018-06-22T10:58:09.711Z,1248.75
2018-06-22T10:59:09.744Z,1417.50
2018-06-22T11:00:09.769Z,1125.00
2018-06-22T11:01:09.795Z,877.50
2018-06-22T11:02:09.810Z,888.75
2018-06-22T11:03:09.842Z,922.50
2018-06-22T11:04:09.865Z,905.63
2018-06-22T11:05:09.889Z,877.50
2018-06-22T11:06:09.920Z,866.25
2018-06-22T11:07:09.953Z,871.88
2018-06-22T11:08:09.970Z,798.75
2018-06-22T11:09:09.994Z,2469.38
2018-06-22T11:10:10.018Z,3183.75
2018-06-22T11:11:10.050Z,3189.38
2018-06-22T11:12:10.072Z,3268.13
2018-06-22T11:13:10.098Z,3425.63
2018-06-22T11:14:10.133Z,1468.13
2018-06-22T11:15:10.158Z,3555.00
2018-06-22T11:16:10.187Z,883.13
2018-06-22T11:17:10.233Z,939.38
2018-06-22T11:18:10.243Z,3712.50
2018-06-22T11:19:10.266Z,1040.63
2018-06-22T11:20:10.297Z,1215.00
2018-06-22T11:21:10.329Z,1265.63
2018-06-22T11:22:10.351Z,1260.00
2018-06-22T11:23:10.382Z,3729.38
2018-06-22T11:24:10.417Z,2739.38
2018-06-22T11:25:10.433Z,3808.13
2018-06-22T11:26:10.467Z,3898.13
2018-06-22T11:27:10.495Z,1001.25
2018-06-22T11:28:10.520Z,736.88
2018-06-22T11:29:10.567Z,703.13
2018-06-22T11:30:10.579Z,742.50
2018-06-22T11:31:10.608Z,793.13
2018-06-22T11:32:10.709Z,759.38
2018-06-22T11:33:10.668Z,961.88
2018-06-22T11:34:10.697Z,3116.25
2018-06-22T11:35:10.727Z,3954.38
2018-06-22T11:36:10.762Z,3740.63
2018-06-22T11:37:10.782Z,2964.38
2018-06-22T11:38:10.817Z,883.13
2018-06-22T11:39:10.845Z,624.38
2018-06-22T11:40:10.870Z,556.88
2018-06-22T11:41:10.960Z,607.50
2018-06-22T11:42:10.931Z,731.25
2018-06-22T11:43:10.958Z,883.13
2018-06-22T11:44:10.988Z,1102.50
2018-06-22T11:45:11.018Z,2863.13
2018-06-22T11:46:11.047Z,2002.50
2018-06-22T11:47:11.075Z,3718.13
2018-06-22T11:48:11.105Z,4246.88
2018-06-22T11:49:11.132Z,3931.88
2018-06-22T11:50:11.168Z,3414.38
2018-06-22T11:51:11.260Z,3768.75
2018-06-22T11:52:11.221Z,3791.25
2018-06-22T11:53:11.250Z,3240.00
2018-06-22T11:54:11.287Z,1248.75
2018-06-22T11:55:11.322Z,1333.13
2018-06-22T11:56:11.343Z,3228.75
2018-06-22T11:57:11.373Z,4314.38
2018-06-22T11:58:11.401Z,2109.38
2018-06-22T11:59:11.478Z,3330.00
2018-06-22T12:00:11.471Z,4050.00
2018-06-22T12:01:11.502Z,1625.63
2018-06-22T12:02:11.525Z,1338.75
2018-06-22T12:03:11.563Z,4089.38
2018-06-22T12:04:11.587Z,3931.88
2018-06-22T12:05:11.622Z,3425.63
2018-06-22T12:06:11.653Z,4719.38
2018-06-22T12:07:11.685Z,1620.00
2018-06-22T12:08:11.713Z,2385.00
2018-06-22T12:09:11.746Z,3915.00
2018-06-22T12:10:11.778Z,3847.50
2018-06-22T12:11:11.806Z,2205.00
2018-06-22T12:12:11.838Z,646.88
2018-06-22T12:13:11.867Z,568.13
2018-06-22T12:14:11.902Z,579.38
2018-06-22T12:15:11.928Z,742.50
2018-06-22T12:16:11.957Z,973.13
2018-06-22T12:17:11.992Z,1147.50
2018-06-22T12:18:12.020Z,3065.63
2018-06-22T12:19:12.167Z,4606.88
2018-06-22T12:20:12.080Z,1338.75
2018-06-22T12:21:12.109Z,5135.63
2018-06-22T12:22:12.144Z,5073.75
2018-06-22T12:23:12.170Z,1507.50
2018-06-22T12:24:12.203Z,2036.25
2018-06-22T12:25:12.236Z,1743.75
2018-06-22T12:26:12.264Z,1721.25
2018-06-22T12:27:12.299Z,2553.75
2018-06-22T12:28:12.324Z,4781.25
2018-06-22T12:29:12.358Z,4595.63
2018-06-22T12:30:12.392Z,4860.00
2018-06-22T12:31:12.421Z,3195.00
2018-06-22T12:32:12.448Z,4021.88
2018-06-22T12:33:12.495Z,4590.00
2018-06-22T12:34:12.514Z,3403.13
2018-06-22T12:35:12.542Z,1957.50
2018-06-22T12:36:12.570Z,1310.63
2018-06-22T12:37:12.607Z,1108.13
2018-06-22T12:38:12.658Z,950.63
2018-06-22T12:39:12.665Z,911.25
2018-06-22T12:40:12.709Z,877.50
2018-06-22T12:41:12.724Z,821.25
2018-06-22T12:42:12.754Z,748.13